Deer Lodge, Montana
Current Conditions -  °F | °C
As of 5:53 AM on Wednesday 26 Nov 2014 (Local Time) from KBTM Reporting Station
Light Snow Light Snow  
Wind Chill: 28°   Ceiling: 4000
Heat Index: 28°   Visibility: 5mi
Dew Point: 27°   Wind: 0mph
Humidity: 96%   Direction: NA
Pressure: 30.07"   Gusts: NA
Location:  46.4°N, 112.73°W
Report Text: KBTM 261253Z AUTO 00000KT 5SM -SN BR FEW014 OVC040 M02/M03 A3007 RMK AO2 SLP218 P0002 T10221028
Loading
Personal Weather Stations






























Interactive Weather Map New forecast layout! Learn more

10-Day Weather Forecast

Advertisements
Track Severe Weather on mobile